Time;durP1;ratioP1;P1;durP2;ratioP2;P2;SDS_P1;SDS_P2;PMS_P1;PMS_P2;Temp;Humidity;BMP_temperature;BMP_pressure;BME280_temperature;BME280_humidity;BME280_pressure;Samples;Min_cycle;Max_cycle;Signal;HPM_P1;HPM_P2
2022/02/28 00:01:14;;;;;;;3.78;2.12;;;0.40;99.90;;;;;;4364367;32;20164;-59
2022/02/28 00:03:40;;;;;;;2.55;2.08;;;0.40;99.90;;;;;;4377919;32;20482;-60
2022/02/28 00:06:08;;;;;;;3.53;2.58;;;0.40;99.90;;;;;;4351605;32;20139;-59
2022/02/28 00:08:34;;;;;;;3.30;2.42;;;0.40;99.90;;;;;;4363882;32;20086;-60
2022/02/28 00:11:01;;;;;;;3.25;2.25;;;0.40;99.90;;;;;;4377527;32;20535;-60
2022/02/28 00:13:27;;;;;;;3.08;2.30;;;0.40;99.90;;;;;;4363517;32;20087;-59
2022/02/28 00:15:54;;;;;;;4.05;2.37;;;0.40;99.90;;;;;;4363753;32;20073;-60
2022/02/28 00:18:20;;;;;;;3.75;2.53;;;0.40;99.90;;;;;;4363787;32;20086;-59
2022/02/28 00:20:47;;;;;;;3.62;2.65;;;0.30;99.90;;;;;;4366701;32;20086;-60
2022/02/28 00:23:13;;;;;;;3.42;2.37;;;0.40;99.90;;;;;;4379521;32;20168;-59
2022/02/28 00:28:19;;;;;;;4.40;2.80;;;0.40;99.90;;;;;;3857368;37;20488;-60
2022/02/28 00:30:46;;;;;;;3.80;2.25;;;0.40;99.90;;;;;;4420774;32;20156;-62
2022/02/28 00:33:13;;;;;;;3.62;2.42;;;0.40;99.90;;;;;;4419957;32;20092;-59
2022/02/28 00:35:40;;;;;;;2.83;2.03;;;0.40;99.90;;;;;;4406171;32;20140;-60
2022/02/28 00:38:10;;;;;;;3.67;2.08;;;0.50;99.90;;;;;;4418183;32;20083;-60
2022/02/28 00:40:38;;;;;;;3.17;2.08;;;0.50;99.90;;;;;;4419733;32;20069;-59
2022/02/28 00:43:05;;;;;;;2.33;1.87;;;0.40;99.90;;;;;;4418520;32;20070;-60
2022/02/28 00:45:31;;;;;;;2.53;1.95;;;0.40;99.90;;;;;;4418693;32;20149;-59
2022/02/28 00:47:58;;;;;;;2.72;2.05;;;0.40;99.90;;;;;;4418510;32;20085;-59
2022/02/28 00:50:24;;;;;;;3.25;2.20;;;0.50;99.90;;;;;;4418443;32;20085;-60
2022/02/28 00:52:51;;;;;;;3.00;1.95;;;0.50;99.90;;;;;;4419980;32;20096;-59
2022/02/28 00:55:17;;;;;;;2.95;2.08;;;0.40;99.90;;;;;;4406222;32;20572;-60
2022/02/28 00:57:44;;;;;;;3.03;2.00;;;0.40;99.90;;;;;;4418564;32;20073;-61
2022/02/28 01:00:15;;;;;;;2.65;2.00;;;0.40;99.90;;;;;;4419352;32;20065;-60
2022/02/28 01:02:42;;;;;;;3.67;2.53;;;0.50;99.90;;;;;;4422302;32;20131;-60
2022/02/28 01:05:11;;;;;;;3.67;2.45;;;0.40;99.90;;;;;;4420787;32;20459;-60
2022/02/28 01:07:37;;;;;;;4.68;3.10;;;0.30;99.90;;;;;;4418537;32;20077;-61
2022/02/28 01:10:10;;;;;;;3.42;2.87;;;0.40;99.90;;;;;;4407016;32;20077;-59
2022/02/28 01:12:36;;;;;;;3.92;2.70;;;0.30;99.90;;;;;;4418020;32;20086;-61
2022/02/28 01:15:06;;;;;;;3.00;2.30;;;0.30;99.90;;;;;;4419846;32;20080;-61
2022/02/28 01:17:33;;;;;;;3.70;2.50;;;0.30;99.90;;;;;;4420114;32;20090;-60
2022/02/28 01:19:59;;;;;;;2.58;2.00;;;0.30;99.90;;;;;;4408747;32;20113;-59
2022/02/28 01:22:26;;;;;;;2.83;2.08;;;0.30;99.90;;;;;;4428368;32;20065;-58
2022/02/28 01:24:52;;;;;;;2.97;2.20;;;0.30;99.90;;;;;;4420474;32;20077;-60
2022/02/28 01:27:19;;;;;;;3.00;2.17;;;0.30;99.90;;;;;;4420954;32;20097;-60
2022/02/28 01:29:46;;;;;;;3.50;2.12;;;0.30;99.90;;;;;;4420036;32;20089;-60
2022/02/28 01:32:12;;;;;;;3.28;2.03;;;0.20;99.90;;;;;;4419388;32;20226;-60
2022/02/28 01:34:39;;;;;;;2.67;2.17;;;0.20;99.90;;;;;;4419164;32;20073;-60
2022/02/28 01:37:05;;;;;;;3.58;2.25;;;0.20;99.90;;;;;;4404994;32;20085;-60
2022/02/28 01:39:32;;;;;;;3.97;2.42;;;0.20;99.90;;;;;;4408407;32;20073;-63
2022/02/28 01:41:58;;;;;;;2.60;2.40;;;0.20;99.90;;;;;;4407788;32;20095;-59
2022/02/28 01:44:25;;;;;;;4.03;2.40;;;0.20;99.90;;;;;;4407166;32;20148;-60
2022/02/28 01:46:51;;;;;;;3.60;2.72;;;0.10;99.90;;;;;;4408626;32;20093;-58
2022/02/28 01:49:18;;;;;;;3.65;2.72;;;0.10;99.90;;;;;;4408651;32;20515;-59
2022/02/28 01:51:45;;;;;;;4.03;3.00;;;0.10;99.90;;;;;;4407591;32;20187;-60
2022/02/28 01:54:12;;;;;;;4.37;3.08;;;0.00;99.90;;;;;;4407459;32;20081;-59
2022/02/28 01:56:38;;;;;;;3.72;2.70;;;0.00;99.90;;;;;;4394717;32;20085;-60
2022/02/28 01:59:05;;;;;;;3.08;2.15;;;0.00;99.90;;;;;;4408751;32;20078;-61
2022/02/28 02:01:32;;;;;;;4.05;2.42;;;-0.10;99.90;;;;;;4406801;32;20088;-60
2022/02/28 02:03:59;;;;;;;4.35;2.60;;;0.00;99.90;;;;;;4409137;32;20589;-60
2022/02/28 02:06:26;;;;;;;3.17;2.55;;;0.00;99.90;;;;;;4408472;32;20089;-59
2022/02/28 02:08:52;;;;;;;4.15;2.50;;;0.00;99.90;;;;;;4408347;32;20085;-60
2022/02/28 02:11:20;;;;;;;3.55;2.40;;;-0.10;99.90;;;;;;4409421;32;20077;-59
2022/02/28 02:13:47;;;;;;;5.25;3.15;;;-0.10;99.90;;;;;;4381884;32;20086;-59
2022/02/28 02:16:15;;;;;;;6.68;3.40;;;-0.10;99.90;;;;;;4406985;32;20100;-58
2022/02/28 02:18:41;;;;;;;8.55;4.70;;;-0.10;99.90;;;;;;4408760;32;20459;-59
2022/02/28 02:21:08;;;;;;;8.35;4.75;;;-0.10;99.90;;;;;;4406882;32;20475;-60
2022/02/28 02:23:34;;;;;;;8.02;4.90;;;-0.10;99.90;;;;;;4408157;32;20169;-61
2022/02/28 02:26:01;;;;;;;8.40;4.78;;;-0.10;99.90;;;;;;4406293;32;20089;-60
2022/02/28 02:28:27;;;;;;;7.55;4.55;;;-0.10;99.90;;;;;;4408615;32;20072;-60
2022/02/28 02:30:55;;;;;;;6.87;4.15;;;-0.10;99.90;;;;;;4408028;32;20570;-61
2022/02/28 02:33:23;;;;;;;7.10;4.00;;;-0.20;99.90;;;;;;4406648;32;20122;-59
2022/02/28 02:35:55;;;;;;;5.87;3.80;;;-0.10;99.90;;;;;;4407581;32;20076;-60
2022/02/28 02:38:24;;;;;;;6.68;3.95;;;-0.10;99.90;;;;;;4406913;32;20073;-60
2022/02/28 02:40:50;;;;;;;4.50;3.22;;;-0.10;99.90;;;;;;4406809;32;20092;-59
2022/02/28 02:43:18;;;;;;;5.35;3.42;;;-0.20;99.90;;;;;;4394324;32;20065;-60
2022/02/28 02:45:44;;;;;;;5.40;3.72;;;-0.20;99.90;;;;;;4408072;32;20172;-60
2022/02/28 02:48:20;;;;;;;5.15;4.07;;;-0.20;99.90;;;;;;4393864;32;20508;-60
2022/02/28 02:50:47;;;;;;;4.57;3.40;;;-0.20;99.90;;;;;;4381012;32;20237;-60
2022/02/28 02:53:14;;;;;;;4.12;2.90;;;-0.20;99.90;;;;;;4407721;32;20065;-60
2022/02/28 02:55:41;;;;;;;4.37;3.25;;;-0.20;99.90;;;;;;4407752;32;20167;-59
2022/02/28 02:58:08;;;;;;;4.07;3.30;;;-0.20;99.90;;;;;;4406573;32;20492;-60
2022/02/28 03:00:35;;;;;;;5.25;3.10;;;-0.20;99.90;;;;;;4407632;32;20081;-59
2022/02/28 03:03:02;;;;;;;4.90;3.10;;;-0.30;99.90;;;;;;4408100;32;20156;-59
2022/02/28 03:05:28;;;;;;;5.35;3.20;;;-0.30;99.90;;;;;;4406045;32;20085;-60
2022/02/28 03:07:54;;;;;;;5.80;3.70;;;-0.30;99.90;;;;;;4408100;32;20069;-60
2022/02/28 03:10:21;;;;;;;5.00;3.30;;;-0.20;99.90;;;;;;4407504;32;20160;-60
2022/02/28 03:12:47;;;;;;;5.25;3.53;;;-0.20;99.90;;;;;;4407691;32;20073;-60
2022/02/28 03:15:14;;;;;;;4.78;3.25;;;-0.30;99.90;;;;;;4393573;32;20089;-60
2022/02/28 03:17:40;;;;;;;4.62;3.28;;;-0.30;99.90;;;;;;4407641;32;20093;-59
2022/02/28 03:20:07;;;;;;;4.28;3.15;;;-0.30;99.90;;;;;;4405831;32;20165;-60
2022/02/28 03:22:34;;;;;;;4.97;3.20;;;-0.30;99.90;;;;;;4393434;32;20523;-60
2022/02/28 03:25:00;;;;;;;4.37;3.10;;;-0.30;99.90;;;;;;4407160;32;20177;-61
2022/02/28 03:27:26;;;;;;;5.18;3.30;;;-0.30;99.90;;;;;;4405618;32;20186;-60
2022/02/28 03:29:53;;;;;;;4.78;3.53;;;-0.30;99.90;;;;;;4406615;32;20092;-60
2022/02/28 03:32:19;;;;;;;4.72;3.10;;;-0.40;99.90;;;;;;4405834;32;20076;-60
2022/02/28 03:34:45;;;;;;;6.47;3.40;;;-0.40;99.90;;;;;;4407431;32;20097;-59
2022/02/28 03:37:12;;;;;;;5.93;3.85;;;-0.50;99.90;;;;;;4407215;32;20504;-60
2022/02/28 03:39:38;;;;;;;7.37;4.57;;;-0.40;99.90;;;;;;4407480;32;20077;-59
2022/02/28 03:42:05;;;;;;;9.38;5.50;;;-0.40;99.90;;;;;;4406993;32;20080;-59
2022/02/28 03:44:32;;;;;;;11.90;6.68;;;-0.40;99.90;;;;;;4405904;32;20092;-59
2022/02/28 03:46:58;;;;;;;10.07;5.12;;;-0.50;99.90;;;;;;4407250;32;20161;-59
2022/02/28 03:49:25;;;;;;;5.90;3.40;;;-0.40;99.90;;;;;;4405511;32;20459;-60
2022/02/28 03:51:51;;;;;;;5.50;3.50;;;-0.40;99.90;;;;;;4406761;32;20064;-60
2022/02/28 03:54:17;;;;;;;4.07;3.15;;;-0.40;99.90;;;;;;4406985;32;20512;-59
2022/02/28 03:56:44;;;;;;;5.45;3.20;;;-0.40;99.90;;;;;;4407087;32;20089;-58
2022/02/28 03:59:12;;;;;;;5.78;3.40;;;-0.30;99.90;;;;;;4393266;32;20085;-60
2022/02/28 04:01:39;;;;;;;4.85;3.05;;;-0.30;99.90;;;;;;4412046;32;20077;-61
2022/02/28 04:04:06;;;;;;;4.05;2.95;;;-0.30;99.90;;;;;;4419698;32;20069;-59
2022/02/28 04:06:32;;;;;;;5.35;3.20;;;-0.20;99.90;;;;;;4416471;32;20220;-60
2022/02/28 04:09:00;;;;;;;4.28;3.12;;;-0.30;99.90;;;;;;4407158;32;20101;-59
2022/02/28 04:11:28;;;;;;;6.45;3.58;;;-0.30;99.90;;;;;;4406656;32;20639;-60
2022/02/28 04:13:55;;;;;;;6.05;4.50;;;-0.20;99.90;;;;;;4406480;32;20608;-60
2022/02/28 04:16:21;;;;;;;6.78;4.45;;;-0.20;99.90;;;;;;4406679;32;20162;-60
2022/02/28 04:18:47;;;;;;;6.75;4.50;;;-0.20;99.90;;;;;;4406554;32;20425;-60
2022/02/28 04:21:14;;;;;;;5.60;3.90;;;-0.20;99.90;;;;;;4405289;32;20068;-60
2022/02/28 04:23:40;;;;;;;4.07;3.00;;;-0.10;99.90;;;;;;4406898;32;20077;-60
2022/02/28 04:26:06;;;;;;;4.87;3.30;;;-0.20;99.90;;;;;;4406156;32;20080;-59
2022/02/28 04:28:33;;;;;;;4.00;2.90;;;-0.20;99.90;;;;;;4407404;32;20154;-59
2022/02/28 04:30:59;;;;;;;4.68;2.95;;;-0.20;99.90;;;;;;4406288;32;20144;-60
2022/02/28 04:33:25;;;;;;;4.10;3.12;;;-0.20;99.90;;;;;;4380190;32;20082;-59
2022/02/28 04:35:52;;;;;;;4.60;3.35;;;-0.10;99.90;;;;;;4406462;32;20096;-59
2022/02/28 04:38:20;;;;;;;4.20;3.03;;;-0.10;99.90;;;;;;4406589;32;20096;-60
2022/02/28 04:40:47;;;;;;;5.12;3.30;;;-0.20;99.90;;;;;;4406783;32;20092;-60
2022/02/28 04:43:14;;;;;;;4.97;3.20;;;-0.20;99.90;;;;;;4406596;32;20079;-61
2022/02/28 04:45:40;;;;;;;4.10;2.97;;;-0.20;99.90;;;;;;4406384;32;20093;-61
2022/02/28 04:48:06;;;;;;;4.55;3.03;;;-0.20;99.90;;;;;;4405192;32;20092;-61
2022/02/28 04:50:33;;;;;;;3.67;2.58;;;-0.10;99.90;;;;;;4392328;32;20092;-60
2022/02/28 04:52:59;;;;;;;4.03;3.00;;;-0.10;99.90;;;;;;4406536;32;20084;-61
2022/02/28 04:55:25;;;;;;;5.30;3.40;;;-0.10;99.90;;;;;;4406394;32;20243;-61
2022/02/28 04:57:52;;;;;;;6.18;3.40;;;-0.10;99.90;;;;;;4379905;32;20096;-60
2022/02/28 05:00:18;;;;;;;6.35;4.07;;;0.00;99.90;;;;;;4406628;32;20069;-60
2022/02/28 05:02:45;;;;;;;5.18;3.08;;;0.00;99.90;;;;;;4408531;32;20084;-61
2022/02/28 05:05:12;;;;;;;6.18;3.17;;;0.10;99.90;;;;;;4405344;32;20089;-61
2022/02/28 05:07:39;;;;;;;4.97;3.12;;;0.00;99.90;;;;;;4406430;32;20156;-61
2022/02/28 05:10:07;;;;;;;4.10;2.78;;;0.10;99.90;;;;;;4406468;32;20156;-59
2022/02/28 05:12:33;;;;;;;4.10;2.72;;;0.20;99.90;;;;;;4405079;32;20100;-61
2022/02/28 05:14:59;;;;;;;4.40;2.90;;;0.60;99.90;;;;;;4408971;32;20081;-61
2022/02/28 05:17:26;;;;;;;4.68;2.95;;;1.60;99.90;;;;;;4408965;32;20058;-61
2022/02/28 05:19:52;;;;;;;4.55;2.50;;;2.10;99.90;;;;;;4407364;32;20096;-61
2022/02/28 05:22:19;;;;;;;5.35;3.97;;;2.30;99.90;;;;;;4382547;32;20456;-60
2022/02/28 05:24:45;;;;;;;4.22;3.20;;;2.40;99.90;;;;;;4408902;32;20089;-60
2022/02/28 05:27:11;;;;;;;4.97;3.22;;;2.80;99.90;;;;;;4408536;32;20082;-60
2022/02/28 05:29:38;;;;;;;5.87;3.55;;;2.50;99.90;;;;;;4408214;32;20490;-61
2022/02/28 05:32:05;;;;;;;4.43;3.20;;;2.80;99.90;;;;;;4408865;32;20081;-61
2022/02/28 05:34:32;;;;;;;5.05;2.97;;;2.70;99.90;;;;;;4407609;32;20105;-59
2022/02/28 05:36:58;;;;;;;5.22;3.50;;;2.80;99.90;;;;;;4408697;32;20070;-61
2022/02/28 05:39:25;;;;;;;5.10;2.85;;;2.60;99.90;;;;;;4408674;32;20093;-60
2022/02/28 05:41:51;;;;;;;4.45;2.87;;;3.20;99.90;;;;;;4408516;32;20459;-60
2022/02/28 05:44:17;;;;;;;4.05;2.65;;;3.20;99.90;;;;;;4408632;32;20081;-60
2022/02/28 05:46:44;;;;;;;4.05;2.50;;;3.30;99.90;;;;;;4407330;32;20084;-60
2022/02/28 05:49:10;;;;;;;4.93;2.83;;;3.10;99.90;;;;;;4406997;32;20091;-60
2022/02/28 05:51:37;;;;;;;5.25;3.10;;;2.90;99.90;;;;;;4408769;32;20070;-61
2022/02/28 05:54:04;;;;;;;4.95;3.03;;;2.90;99.90;;;;;;4407149;32;20100;-60
2022/02/28 05:56:32;;;;;;;4.87;3.22;;;2.90;99.90;;;;;;4407708;32;20069;-60
2022/02/28 05:58:58;;;;;;;4.68;3.00;;;2.60;99.90;;;;;;4408743;32;20567;-61
2022/02/28 06:01:25;;;;;;;5.30;2.62;;;2.80;99.90;;;;;;4407109;32;20105;-61
2022/02/28 06:03:51;;;;;;;6.12;3.28;;;2.90;99.90;;;;;;4382594;32;20092;-59
2022/02/28 06:06:18;;;;;;;5.22;3.08;;;2.20;99.90;;;;;;4408287;32;20088;-60
2022/02/28 06:08:44;;;;;;;4.12;2.70;;;1.90;99.90;;;;;;4406908;32;20088;-59
2022/02/28 06:11:11;;;;;;;6.45;4.45;;;1.90;99.90;;;;;;4406952;32;20093;-60
2022/02/28 06:13:37;;;;;;;6.10;4.20;;;2.60;99.90;;;;;;4406717;32;20110;-61
2022/02/28 06:16:04;;;;;;;5.95;3.75;;;3.10;99.90;;;;;;4406963;32;20180;-61
2022/02/28 06:18:30;;;;;;;5.55;3.17;;;2.90;99.90;;;;;;4409212;32;20081;-60
2022/02/28 06:20:57;;;;;;;5.90;4.25;;;2.40;99.90;;;;;;4410025;32;20141;-60
2022/02/28 06:23:24;;;;;;;6.25;4.00;;;1.80;99.90;;;;;;4400353;32;20182;-59
2022/02/28 06:25:50;;;;;;;5.30;3.67;;;1.50;99.90;;;;;;4386242;32;20493;-59
2022/02/28 06:28:20;;;;;;;6.12;3.87;;;1.30;99.90;;;;;;4412781;32;20610;-60
2022/02/28 06:30:47;;;;;;;5.25;3.45;;;1.40;99.90;;;;;;4408623;32;20081;-60
2022/02/28 06:33:14;;;;;;;5.80;3.78;;;1.40;99.90;;;;;;4408001;32;20093;-59
2022/02/28 06:35:40;;;;;;;7.18;4.32;;;1.40;99.90;;;;;;4407079;32;20085;-59
2022/02/28 06:38:09;;;;;;;6.35;3.95;;;1.40;99.90;;;;;;4406367;32;20612;-60
2022/02/28 06:40:38;;;;;;;6.55;4.12;;;1.50;99.90;;;;;;4407771;32;20157;-60
2022/02/28 06:43:05;;;;;;;6.37;4.25;;;1.60;99.90;;;;;;4407975;32;20085;-60
2022/02/28 06:45:31;;;;;;;5.82;3.70;;;1.70;99.90;;;;;;4408241;32;20072;-60
2022/02/28 06:47:57;;;;;;;7.82;4.25;;;1.70;99.90;;;;;;4407573;32;20091;-60
2022/02/28 06:50:24;;;;;;;6.15;3.83;;;1.80;99.90;;;;;;4406602;32;20160;-59
2022/02/28 06:52:50;;;;;;;7.00;4.60;;;2.00;99.90;;;;;;4407364;32;20062;-59
2022/02/28 06:55:17;;;;;;;6.57;4.70;;;1.70;99.90;;;;;;4406793;32;20153;-61
2022/02/28 06:57:43;;;;;;;6.32;3.97;;;1.50;99.90;;;;;;4406382;32;20139;-61
2022/02/28 07:00:10;;;;;;;6.40;4.22;;;1.60;99.90;;;;;;4406413;32;20077;-60
2022/02/28 07:02:36;;;;;;;5.93;3.95;;;1.50;99.90;;;;;;4405998;32;20080;-59
2022/02/28 07:05:03;;;;;;;6.57;4.10;;;1.70;99.90;;;;;;4407647;32;20157;-59
2022/02/28 07:07:30;;;;;;;6.78;4.22;;;1.70;99.90;;;;;;4393505;32;20069;-59
2022/02/28 07:09:57;;;;;;;5.75;3.53;;;2.00;99.90;;;;;;4393817;32;20089;-60
2022/02/28 07:12:23;;;;;;;7.03;4.53;;;2.00;99.90;;;;;;4406355;32;20128;-60
2022/02/28 07:14:50;;;;;;;7.50;4.30;;;2.00;99.90;;;;;;4407326;32;20440;-59
2022/02/28 07:17:16;;;;;;;6.90;4.45;;;2.00;99.90;;;;;;4405858;32;20080;-59
2022/02/28 07:19:42;;;;;;;6.55;4.28;;;2.10;99.90;;;;;;4408058;32;20069;-58
2022/02/28 07:22:09;;;;;;;6.05;3.75;;;2.20;99.90;;;;;;4407813;32;20459;-60
2022/02/28 07:24:35;;;;;;;6.50;3.97;;;2.30;99.90;;;;;;4417106;32;20077;-68
2022/02/28 07:27:02;;;;;;;7.32;4.47;;;2.30;99.90;;;;;;4417872;32;20164;-61
2022/02/28 07:29:28;;;;;;;8.20;4.45;;;2.40;99.90;;;;;;4415960;32;20073;-61
2022/02/28 07:31:56;;;;;;;7.10;4.90;;;2.20;99.90;;;;;;4406743;32;20073;-61
2022/02/28 07:34:22;;;;;;;7.53;4.40;;;2.10;99.90;;;;;;4405581;32;20620;-59
2022/02/28 07:36:49;;;;;;;7.90;4.72;;;2.30;99.90;;;;;;4392693;32;20475;-59
2022/02/28 07:39:16;;;;;;;6.62;4.03;;;2.30;99.90;;;;;;4405563;32;20104;-58
2022/02/28 07:41:43;;;;;;;7.62;3.95;;;2.50;99.90;;;;;;4407363;32;20081;-60
2022/02/28 07:44:10;;;;;;;8.25;4.47;;;2.40;99.90;;;;;;4407181;32;20077;-60
2022/02/28 07:46:36;;;;;;;8.18;4.62;;;2.50;99.90;;;;;;4404987;32;20593;-61
2022/02/28 07:49:02;;;;;;;6.43;4.30;;;2.40;99.90;;;;;;4406769;32;20466;-60
2022/02/28 07:51:29;;;;;;;6.40;4.07;;;2.70;99.90;;;;;;4406870;32;20085;-60
2022/02/28 07:53:55;;;;;;;7.90;4.80;;;2.60;99.90;;;;;;4405045;32;20089;-59
2022/02/28 07:56:21;;;;;;;6.68;4.47;;;2.70;99.90;;;;;;4407257;32;20161;-60
2022/02/28 07:58:48;;;;;;;7.50;5.20;;;2.70;99.90;;;;;;4406901;32;20069;-61
2022/02/28 08:01:14;;;;;;;6.62;4.82;;;2.70;99.90;;;;;;4405135;32;20073;-60
2022/02/28 08:03:41;;;;;;;7.22;4.65;;;2.70;99.90;;;;;;4406785;32;20065;-61
2022/02/28 08:06:07;;;;;;;7.28;4.40;;;2.70;99.90;;;;;;4407294;32;20084;-61
2022/02/28 08:08:35;;;;;;;6.65;3.62;;;2.90;99.90;;;;;;4406787;32;20176;-61
2022/02/28 08:11:03;;;;;;;4.68;3.25;;;3.00;99.90;;;;;;4405084;32;20156;-61
2022/02/28 08:13:29;;;;;;;7.03;4.68;;;3.00;99.90;;;;;;4405546;32;20152;-60
2022/02/28 08:15:57;;;;;;;6.80;4.80;;;2.90;99.90;;;;;;4405105;32;20076;-59
2022/02/28 08:18:24;;;;;;;6.47;4.03;;;2.80;99.90;;;;;;4404985;32;20086;-59
2022/02/28 08:20:50;;;;;;;7.32;4.87;;;2.90;99.90;;;;;;4405142;32;20081;-59
2022/02/28 08:23:16;;;;;;;7.70;4.20;;;2.80;99.90;;;;;;4406422;32;20101;-59
2022/02/28 08:25:45;;;;;;;7.35;4.55;;;2.80;99.90;;;;;;4405444;32;20083;-60
2022/02/28 08:28:13;;;;;;;7.60;5.10;;;2.90;99.90;;;;;;4406258;32;20074;-59
2022/02/28 08:30:39;;;;;;;7.07;4.87;;;2.90;99.90;;;;;;4392514;32;20463;-59
2022/02/28 08:33:07;;;;;;;6.25;4.43;;;2.90;99.90;;;;;;4405037;32;20089;-60
2022/02/28 08:35:33;;;;;;;9.13;5.00;;;2.90;99.90;;;;;;4405166;32;20161;-60
2022/02/28 08:38:00;;;;;;;7.20;4.90;;;3.10;99.90;;;;;;4392397;32;20096;-61
2022/02/28 08:40:26;;;;;;;7.35;4.70;;;3.10;99.90;;;;;;4405110;32;20084;-60
2022/02/28 08:42:53;;;;;;;6.75;4.25;;;3.00;99.90;;;;;;4407001;32;20152;-59
2022/02/28 08:45:20;;;;;;;6.62;3.95;;;3.10;99.90;;;;;;4407005;32;20101;-61
2022/02/28 08:47:46;;;;;;;5.87;3.83;;;3.50;99.90;;;;;;4392726;32;20142;-60
2022/02/28 08:50:16;;;;;;;6.62;3.62;;;3.40;99.90;;;;;;4407877;32;20065;-60
2022/02/28 08:52:46;;;;;;;7.30;4.28;;;3.70;99.90;;;;;;4408504;32;20074;-60
2022/02/28 08:55:13;;;;;;;8.75;4.62;;;3.60;99.90;;;;;;4409991;32;20096;-60
2022/02/28 08:57:40;;;;;;;6.32;4.03;;;3.60;99.90;;;;;;4409339;32;20168;-60
2022/02/28 09:00:09;;;;;;;6.65;4.45;;;3.60;99.90;;;;;;4407819;32;20084;-60
2022/02/28 09:02:37;;;;;;;7.72;4.93;;;3.50;99.90;;;;;;4408042;32;20112;-60
2022/02/28 09:05:04;;;;;;;6.93;4.05;;;3.60;99.90;;;;;;4407921;32;20084;-60
2022/02/28 09:07:32;;;;;;;7.50;4.70;;;3.50;99.90;;;;;;4382753;32;20156;-61
2022/02/28 09:09:59;;;;;;;6.95;4.55;;;3.50;99.90;;;;;;4407703;32;20169;-61
2022/02/28 09:12:25;;;;;;;5.82;4.07;;;3.50;99.90;;;;;;4408054;32;20492;-60
2022/02/28 09:14:52;;;;;;;7.70;4.45;;;3.60;99.90;;;;;;4395047;32;20088;-60
2022/02/28 09:17:18;;;;;;;6.78;4.47;;;3.50;99.90;;;;;;4408673;32;20109;-60
2022/02/28 09:19:45;;;;;;;7.68;4.68;;;3.60;99.90;;;;;;4407646;32;20153;-60
2022/02/28 09:22:11;;;;;;;6.57;3.85;;;3.50;99.90;;;;;;4407627;32;20135;-60
2022/02/28 09:24:38;;;;;;;8.00;5.00;;;3.60;99.90;;;;;;4409080;32;20077;-61
2022/02/28 09:27:04;;;;;;;7.00;4.05;;;3.50;99.90;;;;;;4408222;32;20468;-60
2022/02/28 09:29:31;;;;;;;6.75;4.30;;;3.40;99.90;;;;;;4408853;32;20146;-60
2022/02/28 09:31:58;;;;;;;8.18;5.05;;;3.70;99.90;;;;;;4407455;32;20550;-59
2022/02/28 09:34:25;;;;;;;7.35;4.78;;;3.70;99.90;;;;;;4395542;32;20160;-59
2022/02/28 09:36:52;;;;;;;9.32;4.90;;;3.60;99.90;;;;;;4394302;32;20432;-60
2022/02/28 09:39:19;;;;;;;8.55;4.87;;;3.60;99.90;;;;;;4408741;32;20073;-60
2022/02/28 09:41:47;;;;;;;7.80;4.78;;;3.70;99.90;;;;;;4407284;32;20076;-61
2022/02/28 09:44:17;;;;;;;7.60;4.25;;;4.00;99.90;;;;;;4382154;32;20092;-60
2022/02/28 09:46:44;;;;;;;7.18;4.93;;;3.90;99.90;;;;;;4407838;32;20073;-61
2022/02/28 09:49:11;;;;;;;5.43;4.30;;;3.50;99.90;;;;;;4407618;32;20481;-60
2022/02/28 09:51:39;;;;;;;9.02;4.47;;;3.70;99.90;;;;;;4408652;32;20073;-60
2022/02/28 09:54:05;;;;;;;7.75;4.75;;;3.90;99.90;;;;;;4394671;32;20092;-61
2022/02/28 09:56:34;;;;;;;8.13;4.78;;;3.80;99.90;;;;;;4407195;32;20096;-61
2022/02/28 09:59:01;;;;;;;6.72;4.40;;;3.50;99.90;;;;;;4406464;32;20424;-60
2022/02/28 10:01:28;;;;;;;6.30;4.40;;;3.40;99.90;;;;;;4394261;32;20085;-60
2022/02/28 10:03:54;;;;;;;9.32;6.25;;;3.50;99.90;;;;;;4408184;32;20216;-60
2022/02/28 10:06:20;;;;;;;9.00;4.90;;;3.40;99.90;;;;;;4394733;32;20070;-59
2022/02/28 10:08:51;;;;;;;7.72;4.70;;;3.40;99.90;;;;;;4407007;32;20065;-60
2022/02/28 10:11:32;;;;;;;7.35;5.10;;;3.40;99.90;;;;;;4381313;32;20077;-60
2022/02/28 10:14:06;;;;;;;6.72;4.75;;;3.50;99.90;;;;;;4382413;32;20081;-60
2022/02/28 10:16:47;;;;;;;7.05;4.93;;;3.40;99.90;;;;;;4407142;32;20500;-60
2022/02/28 10:19:21;;;;;;;7.30;5.07;;;3.30;99.90;;;;;;4408072;32;20459;-59
2022/02/28 10:21:56;;;;;;;7.00;4.47;;;3.30;99.90;;;;;;4408092;32;20069;-61
2022/02/28 10:24:30;;;;;;;6.35;4.15;;;3.40;99.90;;;;;;4406637;32;20076;-61
2022/02/28 10:26:57;;;;;;;6.60;4.22;;;3.40;99.90;;;;;;4407930;32;20116;-60
2022/02/28 10:29:27;;;;;;;8.35;5.95;;;3.40;99.90;;;;;;4407047;32;20081;-60
2022/02/28 10:31:59;;;;;;;8.85;5.18;;;3.20;99.90;;;;;;4408213;32;20085;-61
2022/02/28 10:34:28;;;;;;;7.70;5.32;;;3.30;99.90;;;;;;4407830;32;20583;-61
2022/02/28 10:37:00;;;;;;;7.97;5.43;;;3.20;99.90;;;;;;4408008;32;20081;-60
2022/02/28 10:39:34;;;;;;;7.93;5.00;;;3.40;99.90;;;;;;4406629;32;20511;-61
2022/02/28 10:42:18;;;;;;;7.03;5.30;;;3.20;99.90;;;;;;4408482;32;20077;-59
2022/02/28 10:44:45;;;;;;;8.93;5.82;;;3.30;99.90;;;;;;4407983;32;20054;-60
2022/02/28 10:47:14;;;;;;;8.00;4.80;;;3.40;99.90;;;;;;4408330;32;20507;-61
2022/02/28 10:49:41;;;;;;;7.40;5.03;;;3.60;99.90;;;;;;4407874;32;20073;-61
2022/02/28 10:52:11;;;;;;;7.65;4.87;;;3.50;99.90;;;;;;4405982;32;20078;-61
2022/02/28 10:54:43;;;;;;;10.45;5.68;;;3.90;99.90;;;;;;4408602;32;20137;-63
2022/02/28 10:57:15;;;;;;;7.60;4.87;;;3.80;99.90;;;;;;4408596;32;20459;-61
2022/02/28 10:59:56;;;;;;;7.55;4.62;;;4.20;99.90;;;;;;4418442;32;20085;-61
2022/02/28 11:02:28;;;;;;;7.87;5.60;;;4.30;99.90;;;;;;4416640;32;20066;-60
2022/02/28 11:05:16;;;;;;;7.50;4.95;;;4.50;99.90;;;;;;4409352;32;20112;-60
2022/02/28 11:07:54;;;;;;;8.02;4.70;;;4.40;99.90;;;;;;4407806;32;20540;-60
2022/02/28 11:10:21;;;;;;;6.45;4.95;;;4.10;99.90;;;;;;4394211;32;20068;-59
2022/02/28 11:12:49;;;;;;;4.97;3.17;;;3.80;99.90;;;;;;4405753;32;20086;-60
2022/02/28 11:15:20;;;;;;;8.45;5.25;;;3.90;99.90;;;;;;4407497;32;20084;-61
2022/02/28 11:17:48;;;;;;;6.18;3.67;;;3.80;99.90;;;;;;4406100;32;20161;-60
2022/02/28 11:20:23;;;;;;;7.28;4.50;;;4.00;99.90;;;;;;4407679;32;20592;-61
2022/02/28 11:22:51;;;;;;;5.35;4.00;;;4.00;99.90;;;;;;4407444;32;20092;-60
2022/02/28 11:25:21;;;;;;;6.82;4.85;;;4.00;99.90;;;;;;4405672;32;20459;-60
2022/02/28 11:27:49;;;;;;;5.90;4.20;;;3.80;99.90;;;;;;4405179;32;20140;-61
2022/02/28 11:30:29;;;;;;;7.50;4.90;;;3.90;99.90;;;;;;4405615;32;20081;-60
2022/02/28 11:33:18;;;;;;;7.25;4.70;;;3.90;99.90;;;;;;4407327;32;20504;-59
2022/02/28 11:35:53;;;;;;;6.95;4.32;;;3.80;99.90;;;;;;4407026;32;20145;-60
2022/02/28 11:38:19;;;;;;;8.05;5.07;;;3.90;99.90;;;;;;4407461;32;20097;-63
2022/02/28 11:40:52;;;;;;;8.77;5.43;;;3.80;99.90;;;;;;4405524;32;20072;-61
2022/02/28 11:43:28;;;;;;;8.57;5.12;;;3.90;99.90;;;;;;4407136;32;20074;-61
2022/02/28 11:46:11;;;;;;;6.37;4.18;;;4.10;99.90;;;;;;4405942;32;20110;-60
2022/02/28 11:48:54;;;;;;;7.43;3.87;;;4.60;99.90;;;;;;4382230;32;20077;-60
2022/02/28 11:51:23;;;;;;;5.43;3.62;;;4.00;99.90;;;;;;4413157;32;20494;-59
2022/02/28 11:53:54;;;;;;;6.00;3.90;;;4.10;99.90;;;;;;4415250;32;20486;-60
2022/02/28 11:56:23;;;;;;;7.28;4.72;;;4.00;99.90;;;;;;4401683;32;20072;-59
2022/02/28 11:58:56;;;;;;;7.15;4.60;;;4.00;99.90;;;;;;4397696;32;20164;-60
2022/02/28 12:01:36;;;;;;;10.48;5.07;;;3.90;99.90;;;;;;4394329;32;20161;-60
2022/02/28 12:04:11;;;;;;;7.75;5.18;;;3.60;99.90;;;;;;4394236;32;20104;-60
2022/02/28 12:07:07;;;;;;;8.95;6.25;;;3.80;99.90;;;;;;4393334;32;20164;-61
2022/02/28 12:09:33;;;;;;;9.60;5.75;;;3.60;99.90;;;;;;4407726;32;20492;-62
2022/02/28 12:12:27;;;;;;;6.65;4.72;;;3.70;99.90;;;;;;4393141;32;20097;-60
2022/02/28 12:14:56;;;;;;;7.55;5.10;;;3.70;99.90;;;;;;4406573;32;20097;-61
2022/02/28 12:17:31;;;;;;;9.10;5.22;;;3.80;99.90;;;;;;4405765;32;20177;-61
2022/02/28 12:20:18;;;;;;;6.90;4.70;;;3.70;99.90;;;;;;4407283;32;20081;-60
2022/02/28 12:23:08;;;;;;;9.68;6.15;;;3.50;99.90;;;;;;4406390;32;20109;-60
2022/02/28 12:25:53;;;;;;;8.13;5.35;;;3.60;99.90;;;;;;4406817;32;20114;-60
2022/02/28 12:28:26;;;;;;;10.13;5.20;;;3.70;99.90;;;;;;4405310;32;20068;-59
2022/02/28 12:30:59;;;;;;;10.07;6.00;;;4.20;99.90;;;;;;4405841;32;20076;-61
2022/02/28 12:33:46;;;;;;;14.98;7.18;;;4.00;99.90;;;;;;4406255;32;20084;-62
2022/02/28 12:36:20;;;;;;;9.02;5.85;;;3.60;99.90;;;;;;4405964;32;20073;-61
2022/02/28 12:38:52;;;;;;;9.30;5.70;;;3.30;99.90;;;;;;4405577;32;20105;-60
2022/02/28 12:41:33;;;;;;;11.52;5.57;;;3.40;99.90;;;;;;4405320;32;20070;-59
2022/02/28 12:44:07;;;;;;;9.68;6.47;;;3.60;99.90;;;;;;4405244;32;20496;-62
2022/02/28 12:46:42;;;;;;;10.02;6.07;;;3.40;99.90;;;;;;4405873;32;20081;-61
2022/02/28 12:49:11;;;;;;;7.15;4.80;;;3.30;99.90;;;;;;4406399;32;20165;-59
2022/02/28 12:51:40;;;;;;;11.25;6.32;;;3.40;99.90;;;;;;4406188;32;20169;-60
2022/02/28 12:54:25;;;;;;;10.90;6.43;;;3.40;99.90;;;;;;4405114;32;20077;-60
2022/02/28 12:56:56;;;;;;;9.65;5.97;;;3.30;99.90;;;;;;4404748;32;20141;-60
2022/02/28 12:59:46;;;;;;;11.27;6.40;;;3.10;99.90;;;;;;4392409;32;20074;-60
2022/02/28 13:02:16;;;;;;;7.75;5.05;;;3.20;99.90;;;;;;4404857;32;20094;-60
2022/02/28 13:04:53;;;;;;;9.75;5.78;;;3.10;99.90;;;;;;4404924;32;20562;-63